Hobart, Australia
Current Conditions -  °F | °C
As of 8:30 PM on Saturday 29 Nov 2014 (Local Time) from YMHB Reporting Station
Broken Clouds Broken Clouds  
Wind Chill: 55°   Ceiling: 3000
Heat Index: 55°   Visibility: 6mi
Dew Point: 43°   Wind: 8mph
Humidity: 63%   Direction: 90°E
Pressure: 30.09"   Gusts: NA
Location:  42.88°S, 147.33°E
Report Text: YMHB 290930Z 09007KT 9999 FEW020 BKN030 13/06 Q1019
Loading
Personal Weather Stations






























Interactive Weather Map New forecast layout! Learn more

10-Day Weather Forecast

Advertisements
Track Severe Weather on mobile